Time;durP1;ratioP1;P1;durP2;ratioP2;P2;SDS_P1;SDS_P2;PMS_P1;PMS_P2;Temp;Humidity;BMP_temperature;BMP_pressure;BME280_temperature;BME280_humidity;BME280_pressure;Samples;Min_cycle;Max_cycle;Signal;HPM_P1;HPM_P2
2023/06/16 00:01:14;;;;;;;8.93;4.80;;;;;;;18.73;57.31;101865.13;7393302;19;20416;-66
2023/06/16 00:03:43;;;;;;;10.25;5.45;;;;;;;18.68;57.40;101860.16;7392914;19;20042;-66
2023/06/16 00:06:13;;;;;;;7.68;4.75;;;;;;;18.56;58.18;101857.72;7393167;19;20089;-66
2023/06/16 00:08:44;;;;;;;8.65;5.63;;;;;;;18.52;58.60;101854.47;7393819;19;20029;-62
2023/06/16 00:11:13;;;;;;;9.25;5.30;;;;;;;18.58;58.45;101853.91;7393981;19;20018;-63
2023/06/16 00:13:41;;;;;;;6.78;4.70;;;;;;;18.60;58.53;101859.16;7393035;19;20039;-63
2023/06/16 00:16:12;;;;;;;9.50;5.25;;;;;;;18.56;58.82;101858.56;7394543;19;20018;-64
2023/06/16 00:18:43;;;;;;;8.88;5.68;;;;;;;18.37;59.61;101854.00;7392911;19;20500;-65
2023/06/16 00:21:14;;;;;;;9.05;6.00;;;;;;;18.36;59.36;101851.47;7392389;19;20026;-64
2023/06/16 00:23:41;;;;;;;9.30;5.75;;;;;;;18.43;59.30;101858.84;7392004;19;20047;-64
2023/06/16 00:26:08;;;;;;;9.23;5.75;;;;;;;18.54;59.35;101855.16;7393315;19;20023;-63
2023/06/16 00:28:36;;;;;;;9.55;6.22;;;;;;;18.49;59.52;101850.22;7391096;19;20086;-63
2023/06/16 00:31:03;;;;;;;9.90;6.18;;;;;;;18.45;59.56;101845.28;7393658;19;20015;-64
2023/06/16 00:33:30;;;;;;;11.27;6.35;;;;;;;18.49;59.90;101847.53;7392146;19;20033;-65
2023/06/16 00:35:57;;;;;;;10.43;6.75;;;;;;;18.49;60.01;101852.06;7393119;19;20018;-65
2023/06/16 00:38:27;;;;;;;11.90;6.72;;;;;;;18.45;60.17;101848.81;7392464;19;20010;-65
2023/06/16 00:40:54;;;;;;;11.18;6.35;;;;;;;18.36;60.70;101844.28;7391736;19;20085;-69
2023/06/16 00:43:22;;;;;;;11.20;6.77;;;;;;;18.36;60.78;101851.47;7392103;19;20010;-68
2023/06/16 00:45:50;;;;;;;11.27;7.13;;;;;;;18.34;60.78;101848.06;7393393;19;20014;-68
2023/06/16 00:48:17;;;;;;;12.27;7.75;;;;;;;18.34;60.91;101848.06;7392212;19;20045;-67
2023/06/16 00:50:45;;;;;;;10.55;7.10;;;;;;;18.32;61.02;101840.16;7392194;19;20089;-66
2023/06/16 00:53:12;;;;;;;11.25;7.40;;;;;;;18.34;61.09;101835.50;7392002;19;20018;-66
2023/06/16 00:55:40;;;;;;;13.10;7.18;;;;;;;18.33;61.08;101857.94;7392539;19;20077;-67
2023/06/16 00:58:08;;;;;;;12.02;7.68;;;;;;;18.31;61.71;101854.53;7392423;19;20022;-68
2023/06/16 01:00:37;;;;;;;12.80;7.72;;;;;;;18.27;61.72;101853.13;7390625;19;20027;-67
2023/06/16 01:03:08;;;;;;;12.90;8.40;;;;;;;18.23;61.63;101844.50;7391741;19;20039;-68
2023/06/16 01:05:36;;;;;;;12.32;8.02;;;;;;;18.22;62.04;101850.00;7387810;19;20014;-67
2023/06/16 01:08:11;;;;;;;12.23;8.30;;;;;;;18.25;62.07;101842.53;7392244;19;20015;-64
2023/06/16 01:10:54;;;;;;;12.77;8.55;;;;;;;18.26;62.49;101836.19;7390366;19;20163;-64
2023/06/16 01:13:42;;;;;;;11.55;8.18;;;;;;;18.22;62.74;101842.81;7392226;19;20049;-65
2023/06/16 01:16:10;;;;;;;12.02;8.88;;;;;;;18.13;62.85;101848.16;7391693;19;20499;-64
2023/06/16 01:18:43;;;;;;;11.82;8.52;;;;;;;18.13;62.99;101834.75;7391460;19;20019;-64
2023/06/16 01:21:41;;;;;;;14.85;9.05;;;;;;;18.17;63.09;101842.38;7391869;19;20467;-64
2023/06/16 01:24:13;;;;;;;14.07;9.10;;;;;;;18.11;63.16;101850.09;7391296;19;20021;-64
2023/06/16 01:26:47;;;;;;;13.95;8.65;;;;;;;18.14;63.49;101849.84;7391141;19;20024;-64
2023/06/16 01:29:14;;;;;;;11.20;8.05;;;;;;;18.06;63.20;101852.34;7390528;19;20029;-64
2023/06/16 01:31:43;;;;;;;12.75;9.27;;;;;;;18.12;63.49;101847.28;7391153;19;20108;-63
2023/06/16 01:34:12;;;;;;;16.02;9.05;;;;;;;18.12;63.39;101849.97;7391538;19;20491;-64
2023/06/16 01:36:41;;;;;;;13.50;8.88;;;;;;;18.10;63.58;101843.06;7391472;19;20059;-65
2023/06/16 01:39:14;;;;;;;12.13;8.80;;;;;;;18.07;63.62;101846.84;7389795;19;20054;-60
2023/06/16 01:41:42;;;;;;;15.40;9.38;;;;;;;18.01;64.07;101847.41;7390111;19;20018;-60
2023/06/16 01:44:10;;;;;;;13.52;9.63;;;;;;;18.03;64.04;101846.25;7390687;19;20514;-60
2023/06/16 01:46:38;;;;;;;11.82;9.40;;;;;;;18.01;64.39;101845.56;7390821;19;20031;-60
2023/06/16 01:49:06;;;;;;;15.73;9.68;;;;;;;17.99;64.25;101842.16;7390874;19;20018;-59
2023/06/16 01:51:33;;;;;;;12.40;9.05;;;;;;;17.99;64.33;101841.31;7390548;19;20022;-60
2023/06/16 01:54:00;;;;;;;15.68;9.38;;;;;;;17.98;64.51;101834.25;7390699;19;20019;-60
2023/06/16 01:56:29;;;;;;;13.68;9.57;;;;;;;17.91;64.74;101835.78;7390862;19;20077;-60
2023/06/16 01:58:56;;;;;;;13.68;9.50;;;;;;;17.88;64.96;101838.72;7391336;19;20495;-60
2023/06/16 02:01:29;;;;;;;13.57;10.02;;;;;;;17.88;65.05;101830.69;7388825;19;20019;-60
2023/06/16 02:04:06;;;;;;;16.25;10.20;;;;;;;17.84;65.50;101831.94;7389914;19;20037;-60
2023/06/16 02:06:55;;;;;;;13.75;9.65;;;;;;;17.84;65.43;101831.94;7389121;19;20032;-60
2023/06/16 02:09:25;;;;;;;12.60;9.93;;;;;;;17.80;65.45;101825.16;7390552;19;20038;-60
2023/06/16 02:11:54;;;;;;;14.82;10.27;;;;;;;17.85;65.39;101820.22;7389494;19;20015;-59
2023/06/16 02:14:22;;;;;;;15.43;10.48;;;;;;;17.83;65.48;101820.38;7390402;19;20506;-59
2023/06/16 02:16:50;;;;;;;15.80;9.45;;;;;;;17.86;65.56;101817.44;7394182;19;20031;-60
2023/06/16 02:19:17;;;;;;;16.48;10.43;;;;;;;17.86;65.45;101817.44;7397027;19;20022;-59
2023/06/16 02:21:45;;;;;;;13.65;10.30;;;;;;;17.88;65.70;101823.50;7396592;19;20039;-59
2023/06/16 02:24:12;;;;;;;14.05;9.70;;;;;;;17.86;65.66;101816.56;7396882;19;20385;-59
2023/06/16 02:26:40;;;;;;;13.05;9.40;;;;;;;17.83;65.56;101820.38;7396123;19;20074;-59
2023/06/16 02:29:07;;;;;;;12.95;9.90;;;;;;;17.77;66.05;101819.06;7397074;19;20078;-58
2023/06/16 02:31:34;;;;;;;15.27;10.45;;;;;;;17.80;65.87;101826.00;7397096;19;20015;-58
2023/06/16 02:34:01;;;;;;;14.10;9.88;;;;;;;17.83;65.55;101816.84;7397233;19;20025;-58
2023/06/16 02:36:29;;;;;;;13.15;10.00;;;;;;;17.76;66.16;101822.72;7397651;19;20014;-58
2023/06/16 02:38:56;;;;;;;16.92;10.68;;;;;;;17.74;65.97;101818.44;7395491;19;20482;-58
2023/06/16 02:41:23;;;;;;;12.18;9.15;;;;;;;17.74;66.42;101821.13;7397112;19;20022;-61
2023/06/16 02:43:51;;;;;;;16.60;10.63;;;;;;;17.68;66.37;101819.00;7395289;19;20019;-58
2023/06/16 02:46:18;;;;;;;14.85;10.35;;;;;;;17.71;66.54;101819.59;7393834;19;20024;-59
2023/06/16 02:48:45;;;;;;;14.85;9.60;;;;;;;17.69;66.65;101818.84;7397082;19;20034;-60
2023/06/16 02:51:12;;;;;;;14.82;10.48;;;;;;;17.61;66.91;101816.00;7397024;19;20019;-61
2023/06/16 02:53:41;;;;;;;13.13;9.65;;;;;;;17.59;66.95;101815.28;7396080;19;20490;-61
2023/06/16 02:56:08;;;;;;;14.68;10.35;;;;;;;17.56;67.24;101820.91;7397043;19;20018;-61
2023/06/16 02:58:35;;;;;;;14.05;9.52;;;;;;;17.56;67.21;101822.75;7397036;19;20047;-61
2023/06/16 03:01:04;;;;;;;14.88;10.77;;;;;;;17.51;67.41;101826.66;7394431;19;20145;-61
2023/06/16 03:03:32;;;;;;;14.82;10.15;;;;;;;17.56;67.24;101818.22;7396127;19;20022;-61
2023/06/16 03:06:00;;;;;;;16.27;10.60;;;;;;;17.58;67.21;101821.59;7394664;19;20027;-60
2023/06/16 03:08:28;;;;;;;14.07;10.70;;;;;;;17.54;67.28;101809.47;7395042;19;20019;-61
2023/06/16 03:10:55;;;;;;;16.25;10.70;;;;;;;17.50;67.67;101813.38;7394252;19;20018;-61
2023/06/16 03:13:22;;;;;;;14.40;10.50;;;;;;;17.53;67.61;101819.34;7393607;19;20023;-60
2023/06/16 03:15:50;;;;;;;15.00;10.93;;;;;;;17.66;66.98;101819.13;7394799;19;20014;-60
2023/06/16 03:18:18;;;;;;;16.38;12.07;;;;;;;17.58;67.28;101818.94;7395715;19;20483;-60
2023/06/16 03:20:47;;;;;;;16.30;11.30;;;;;;;17.60;67.57;101825.03;7393966;19;20018;-59
2023/06/16 03:23:14;;;;;;;16.35;11.52;;;;;;;17.63;66.94;101816.72;7395020;19;20014;-59
2023/06/16 03:25:42;;;;;;;16.60;11.68;;;;;;;17.51;67.72;101824.00;7392898;19;20017;-59
2023/06/16 03:28:09;;;;;;;15.60;11.60;;;;;;;17.51;68.00;101821.31;7393742;19;20504;-59
2023/06/16 03:30:36;;;;;;;16.58;11.95;;;;;;;17.50;68.02;101814.22;7393447;19;20015;-59
2023/06/16 03:33:03;;;;;;;16.73;11.05;;;;;;;17.51;68.05;101817.75;7394916;19;20022;-58
2023/06/16 03:35:31;;;;;;;17.85;12.93;;;;;;;17.54;67.61;101812.16;7395628;19;20125;-59
2023/06/16 03:37:58;;;;;;;15.50;11.10;;;;;;;17.63;67.46;101808.69;7395424;19;20022;-59
2023/06/16 03:40:25;;;;;;;16.42;12.40;;;;;;;17.64;67.27;101809.53;7393699;19;20018;-59
2023/06/16 03:42:52;;;;;;;14.68;11.77;;;;;;;17.59;67.85;101803.69;7394793;19;20015;-60
2023/06/16 03:45:19;;;;;;;18.17;12.65;;;;;;;17.58;67.81;101807.38;7394081;19;20344;-60
2023/06/16 03:47:47;;;;;;;19.55;12.98;;;;;;;17.62;67.79;101811.47;7394979;19;20018;-61
2023/06/16 03:50:14;;;;;;;18.60;12.80;;;;;;;17.69;67.21;101818.00;7393702;19;20022;-60
2023/06/16 03:52:41;;;;;;;17.42;11.20;;;;;;;17.66;67.65;101818.28;7393965;19;20015;-60
2023/06/16 03:55:09;;;;;;;16.00;11.95;;;;;;;17.73;67.31;101809.56;7395123;19;20510;-59
2023/06/16 03:57:36;;;;;;;16.42;12.10;;;;;;;17.76;67.29;101827.25;7394732;19;20015;-60
2023/06/16 04:00:10;;;;;;;16.92;12.60;;;;;;;17.84;67.09;101824.75;7393725;19;20023;-60
2023/06/16 04:02:37;;;;;;;15.65;12.00;;;;;;;17.89;66.88;101825.19;7393838;19;20019;-60
2023/06/16 04:05:05;;;;;;;16.48;12.65;;;;;;;17.85;67.10;101830.94;7394094;19;20093;-59
2023/06/16 04:07:34;;;;;;;17.40;11.43;;;;;;;17.82;67.26;101836.56;7394521;19;20030;-59
2023/06/16 04:10:02;;;;;;;18.30;12.45;;;;;;;17.78;67.30;101831.50;7391772;19;20015;-59
2023/06/16 04:12:29;;;;;;;15.88;11.48;;;;;;;17.81;67.26;101833.03;7393676;19;20042;-59
2023/06/16 04:14:57;;;;;;;16.20;11.50;;;;;;;17.84;67.21;101824.75;7393919;19;20034;-59
2023/06/16 04:17:24;;;;;;;13.57;11.00;;;;;;;17.85;66.68;101822.91;7393916;19;20014;-59
2023/06/16 04:19:52;;;;;;;17.42;11.15;;;;;;;17.85;66.83;101826.44;7393533;19;20029;-58
2023/06/16 04:22:19;;;;;;;15.05;11.30;;;;;;;17.82;67.23;101821.38;7393400;19;20074;-58
2023/06/16 04:24:46;;;;;;;14.45;11.20;;;;;;;17.82;66.88;101816.00;7393246;19;20019;-58
2023/06/16 04:27:15;;;;;;;14.75;11.40;;;;;;;17.87;66.78;101819.13;7393375;19;20021;-60
2023/06/16 04:29:42;;;;;;;14.23;11.07;;;;;;;17.92;66.70;101826.75;7391287;19;20014;-61
2023/06/16 04:32:11;;;;;;;16.55;10.68;;;;;;;17.93;66.30;101829.31;7393171;19;20525;-59
2023/06/16 04:34:38;;;;;;;14.77;10.77;;;;;;;17.94;66.20;101825.66;7393679;19;20019;-58
2023/06/16 04:37:09;;;;;;;14.57;10.95;;;;;;;17.92;66.38;101824.91;7393403;19;20094;-59
2023/06/16 04:39:37;;;;;;;15.70;10.95;;;;;;;17.98;66.20;101823.53;7392165;19;20014;-60
2023/06/16 04:42:07;;;;;;;13.48;10.88;;;;;;;17.99;66.29;101814.50;7392616;19;20470;-60
2023/06/16 04:44:35;;;;;;;15.23;11.95;;;;;;;17.97;66.08;101811.97;7393558;19;20218;-59
2023/06/16 04:47:03;;;;;;;16.42;11.07;;;;;;;18.05;65.76;101807.75;7391784;19;20025;-60
2023/06/16 04:49:30;;;;;;;15.48;11.65;;;;;;;18.14;65.66;101809.63;7390818;19;20026;-60
2023/06/16 04:51:58;;;;;;;16.10;11.65;;;;;;;18.13;65.56;101814.16;7391371;19;20114;-61
2023/06/16 04:54:25;;;;;;;15.90;11.57;;;;;;;18.12;65.72;101811.59;7392857;19;20018;-60
2023/06/16 04:56:52;;;;;;;17.55;12.57;;;;;;;18.19;65.62;101808.22;7392918;19;20031;-60
2023/06/16 04:59:20;;;;;;;17.20;13.10;;;;;;;18.16;65.31;101811.19;7392289;19;20021;-61
2023/06/16 05:01:50;;;;;;;16.77;12.48;;;;;;;18.11;65.70;101810.75;7392359;19;20157;-61
2023/06/16 05:04:17;;;;;;;16.75;12.43;;;;;;;18.16;65.97;101807.63;7392206;19;20074;-61
2023/06/16 05:06:44;;;;;;;18.73;12.43;;;;;;;18.16;65.64;101815.69;7390960;19;20018;-60
2023/06/16 05:09:12;;;;;;;18.90;13.00;;;;;;;18.13;65.59;101806.09;7392207;19;20377;-60
2023/06/16 05:11:39;;;;;;;15.30;12.20;;;;;;;18.18;65.67;101806.53;7392382;19;20023;-60
2023/06/16 05:14:06;;;;;;;18.30;13.32;;;;;;;18.18;65.73;101806.53;7391659;19;20015;-60
2023/06/16 05:16:34;;;;;;;18.02;12.57;;;;;;;18.19;65.47;101802.84;7392425;19;20018;-60
2023/06/16 05:19:02;;;;;;;15.85;12.10;;;;;;;18.20;65.76;101803.69;7391868;19;20031;-60
2023/06/16 05:21:30;;;;;;;16.30;12.73;;;;;;;18.23;65.76;101812.31;7392447;19;20487;-60
2023/06/16 05:24:00;;;;;;;20.23;13.40;;;;;;;18.33;65.03;101808.84;7390785;19;20308;-60
2023/06/16 05:26:27;;;;;;;17.77;12.10;;;;;;;18.37;65.32;101804.88;7390483;19;20024;-60
2023/06/16 05:28:54;;;;;;;15.93;12.38;;;;;;;18.39;64.93;101805.59;7391249;19;20025;-60
2023/06/16 05:31:21;;;;;;;17.58;12.85;;;;;;;18.43;65.26;101799.81;7391622;19;20014;-60
2023/06/16 05:33:49;;;;;;;21.60;13.57;;;;;;;18.48;65.14;101805.63;7391338;19;20039;-60
2023/06/16 05:36:16;;;;;;;17.80;13.35;;;;;;;18.47;64.98;101808.44;7391230;19;20023;-60
2023/06/16 05:38:44;;;;;;;19.05;12.95;;;;;;;18.49;64.79;101806.47;7391129;19;20018;-61
2023/06/16 05:41:11;;;;;;;17.13;12.45;;;;;;;18.52;64.91;101803.50;7391509;19;20022;-60
2023/06/16 05:43:38;;;;;;;19.40;13.63;;;;;;;18.49;64.89;101803.78;7388635;19;20018;-60
2023/06/16 05:46:05;;;;;;;18.27;13.77;;;;;;;18.51;64.92;101791.94;7389010;19;20026;-61
2023/06/16 05:48:32;;;;;;;17.42;13.07;;;;;;;18.53;65.01;101799.81;7391198;19;20047;-60
2023/06/16 05:50:59;;;;;;;19.15;12.05;;;;;;;18.48;64.90;101805.63;7387895;19;20102;-60
2023/06/16 05:53:27;;;;;;;20.35;13.50;;;;;;;18.47;65.09;101808.44;7388916;19;20025;-60
2023/06/16 05:55:54;;;;;;;18.25;13.60;;;;;;;18.39;65.65;101805.59;7389520;19;20102;-60
2023/06/16 05:58:25;;;;;;;17.25;13.05;;;;;;;18.40;66.02;101796.56;7391569;19;20023;-58
2023/06/16 06:00:52;;;;;;;19.10;14.68;;;;;;;18.39;66.13;101802.91;7387719;19;20017;-59
2023/06/16 06:03:19;;;;;;;19.33;14.80;;;;;;;18.31;66.48;101803.59;7390342;19;20015;-57
2023/06/16 06:05:47;;;;;;;21.10;13.40;;;;;;;18.35;66.94;101802.31;7390023;19;20018;-57
2023/06/16 06:08:14;;;;;;;19.02;14.05;;;;;;;18.35;66.68;101805.00;7391160;19;20064;-57
2023/06/16 06:10:42;;;;;;;16.77;13.55;;;;;;;18.37;66.65;101807.56;7389341;19;20022;-60
2023/06/16 06:13:09;;;;;;;19.27;14.00;;;;;;;18.35;67.14;101806.84;7390343;19;20018;-61
2023/06/16 06:15:36;;;;;;;17.27;12.93;;;;;;;18.35;66.85;101804.16;7390813;19;20043;-61
2023/06/16 06:18:06;;;;;;;19.30;13.55;;;;;;;18.36;66.87;101804.03;7390920;19;20060;-59
2023/06/16 06:20:34;;;;;;;16.77;13.32;;;;;;;18.37;67.01;101799.53;7388769;19;20023;-59
2023/06/16 06:23:01;;;;;;;16.50;13.63;;;;;;;18.41;66.69;101804.47;7389429;19;20018;-60
2023/06/16 06:25:28;;;;;;;17.92;13.55;;;;;;;18.43;67.05;101807.00;7389753;19;20046;-60
2023/06/16 06:27:55;;;;;;;17.40;13.40;;;;;;;18.43;67.02;101801.63;7390581;19;20070;-60
2023/06/16 06:30:24;;;;;;;17.40;12.48;;;;;;;18.52;66.53;101803.50;7388890;19;20014;-60
2023/06/16 06:32:51;;;;;;;16.85;12.43;;;;;;;18.56;66.21;101799.56;7388107;19;20019;-60
2023/06/16 06:35:19;;;;;;;17.70;12.73;;;;;;;18.59;66.21;101810.00;7390476;19;20039;-60
2023/06/16 06:37:46;;;;;;;17.25;12.15;;;;;;;18.63;65.71;101807.91;7389825;19;20058;-61
2023/06/16 06:40:13;;;;;;;14.98;12.02;;;;;;;18.69;65.67;101802.78;7388437;19;20017;-61
2023/06/16 06:42:40;;;;;;;15.10;10.98;;;;;;;18.69;65.94;101805.47;7389193;19;20014;-61
2023/06/16 06:45:10;;;;;;;14.70;11.05;;;;;;;18.73;65.42;101809.63;7389660;19;20030;-61
2023/06/16 06:47:37;;;;;;;14.55;11.60;;;;;;;18.74;65.41;101808.66;7389478;19;20019;-61
2023/06/16 06:50:05;;;;;;;14.57;11.40;;;;;;;18.80;64.95;101807.22;7388063;19;20055;-61
2023/06/16 06:52:33;;;;;;;13.57;10.90;;;;;;;18.84;64.98;101799.75;7389142;19;20029;-60
2023/06/16 06:55:00;;;;;;;13.85;9.68;;;;;;;18.91;64.35;101798.19;7389237;19;20015;-60
2023/06/16 06:57:28;;;;;;;16.55;10.05;;;;;;;18.97;63.98;101798.47;7389601;19;20035;-60
2023/06/16 06:59:55;;;;;;;14.45;10.27;;;;;;;19.05;63.99;101796.91;7388395;19;20029;-60
2023/06/16 07:02:23;;;;;;;15.32;10.13;;;;;;;19.08;63.77;101804.66;7389436;19;20481;-60
2023/06/16 07:04:51;;;;;;;16.48;10.57;;;;;;;19.11;63.42;101799.84;7396706;19;20006;-60
2023/06/16 07:07:18;;;;;;;15.25;9.13;;;;;;;19.18;63.33;101800.97;7394422;19;20498;-60
2023/06/16 07:09:45;;;;;;;15.48;10.23;;;;;;;19.24;63.08;101805.78;7395104;19;20018;-60
2023/06/16 07:12:12;;;;;;;17.33;10.23;;;;;;;19.22;63.01;101799.69;7396218;19;20021;-59
2023/06/16 07:14:40;;;;;;;14.50;10.75;;;;;;;19.26;63.24;101804.78;7396635;19;20033;-59
2023/06/16 07:17:07;;;;;;;13.57;9.02;;;;;;;19.33;62.85;101804.06;7396373;19;20479;-59
2023/06/16 07:19:34;;;;;;;13.75;10.02;;;;;;;19.38;63.00;101803.63;7394890;19;20018;-59
2023/06/16 07:22:01;;;;;;;16.67;10.98;;;;;;;19.37;62.63;101808.16;7396042;19;20028;-59
2023/06/16 07:24:29;;;;;;;14.43;9.45;;;;;;;19.44;62.67;101816.50;7396448;19;20022;-59
2023/06/16 07:26:56;;;;;;;12.35;8.65;;;;;;;19.52;62.71;101805.88;7394546;19;20025;-60
2023/06/16 07:29:23;;;;;;;14.05;9.75;;;;;;;19.59;62.26;101806.13;7398353;19;20026;-59
2023/06/16 07:31:50;;;;;;;12.98;8.27;;;;;;;19.65;62.20;101806.44;7394930;19;20019;-59
2023/06/16 07:34:18;;;;;;;14.77;8.32;;;;;;;19.76;62.00;101805.38;7396186;19;20018;-60
2023/06/16 07:36:46;;;;;;;15.38;9.00;;;;;;;19.74;62.23;101801.16;7395761;19;20010;-60
2023/06/16 07:41:44;;;;;;;13.60;8.65;;;;;;;19.79;62.04;101806.94;7393656;19;20128;-67
2023/06/16 07:44:12;;;;;;;14.40;8.20;;;;;;;19.86;62.04;101810.75;7393523;19;20086;-67
2023/06/16 07:46:40;;;;;;;10.48;7.45;;;;;;;19.93;61.42;101810.00;7393865;19;20032;-66
2023/06/16 07:49:07;;;;;;;14.63;8.80;;;;;;;19.92;61.45;101805.63;7391052;19;20034;-67
2023/06/16 07:51:34;;;;;;;11.27;7.70;;;;;;;19.95;61.86;101809.84;7394614;19;20147;-66
2023/06/16 07:54:03;;;;;;;10.95;7.32;;;;;;;20.10;61.89;101804.81;7393949;19;20491;-66
2023/06/16 07:56:30;;;;;;;12.35;7.47;;;;;;;20.12;61.58;101806.38;7394280;19;20010;-65
2023/06/16 07:58:57;;;;;;;14.32;7.25;;;;;;;20.10;61.63;101800.28;7394140;19;20039;-66
2023/06/16 08:01:24;;;;;;;12.10;7.07;;;;;;;20.15;61.39;101798.00;7390360;19;20510;-67
2023/06/16 08:03:52;;;;;;;12.02;6.78;;;;;;;20.22;60.46;101798.22;7391967;19;20051;-65
2023/06/16 08:06:20;;;;;;;10.02;6.53;;;;;;;20.27;60.06;101790.56;7393089;19;20019;-65
2023/06/16 08:08:47;;;;;;;9.75;6.47;;;;;;;20.35;60.13;101787.13;7392749;19;20028;-66
2023/06/16 08:11:14;;;;;;;10.70;6.75;;;;;;;20.44;60.16;101789.75;7392526;19;20543;-66
2023/06/16 08:13:42;;;;;;;10.55;6.15;;;;;;;20.55;59.62;101785.19;7390578;19;20431;-66
2023/06/16 08:16:09;;;;;;;11.30;6.22;;;;;;;20.61;59.56;101781.88;7393590;19;20018;-66
2023/06/16 08:18:37;;;;;;;9.85;5.75;;;;;;;20.68;59.14;101781.13;7393674;19;20018;-65
2023/06/16 08:21:06;;;;;;;10.57;5.97;;;;;;;20.76;58.34;101787.53;7390341;19;20095;-66
2023/06/16 08:23:35;;;;;;;11.63;6.63;;;;;;;20.87;58.45;101787.31;7392924;19;20028;-65
2023/06/16 08:26:04;;;;;;;11.32;6.40;;;;;;;20.93;57.88;101792.94;7391947;19;20119;-66
2023/06/16 08:28:32;;;;;;;9.35;5.85;;;;;;;20.91;57.42;101786.88;7393734;19;20082;-66
2023/06/16 08:30:59;;;;;;;8.75;5.95;;;;;;;21.01;57.45;101792.16;7392383;19;20022;-67
2023/06/16 08:33:26;;;;;;;11.18;6.47;;;;;;;21.09;57.16;101786.81;7392231;19;20039;-66
2023/06/16 08:35:53;;;;;;;12.70;6.18;;;;;;;21.14;57.52;101789.91;7392852;19;20039;-66
2023/06/16 08:38:21;;;;;;;11.68;6.47;;;;;;;21.16;57.72;101797.81;7392864;19;20026;-66
2023/06/16 08:40:48;;;;;;;9.80;7.10;;;;;;;21.12;57.56;101788.38;7392282;19;20457;-65
2023/06/16 08:43:16;;;;;;;14.88;7.45;;;;;;;21.13;57.49;101792.75;7392011;19;20112;-66
2023/06/16 08:45:45;;;;;;;10.95;6.53;;;;;;;21.11;57.76;101789.38;7391288;19;20033;-66
2023/06/16 08:48:13;;;;;;;9.45;5.60;;;;;;;21.15;57.44;101783.53;7391180;19;20345;-66
2023/06/16 08:50:40;;;;;;;10.75;6.15;;;;;;;21.18;56.97;101780.53;7390825;19;20026;-66
2023/06/16 08:53:11;;;;;;;7.75;5.43;;;;;;;21.28;56.82;101776.88;7392536;19;20789;-66
2023/06/16 08:55:40;;;;;;;8.07;5.88;;;;;;;21.33;56.63;101774.56;7390877;19;20022;-66
2023/06/16 08:58:11;;;;;;;9.00;5.75;;;;;;;21.30;57.17;101773.00;7392672;19;20108;-66
2023/06/16 09:00:40;;;;;;;10.43;5.82;;;;;;;21.24;56.81;101776.34;7391675;19;20033;-67
2023/06/16 09:03:08;;;;;;;9.40;5.45;;;;;;;21.15;56.74;101780.81;7391758;19;20015;-67
2023/06/16 09:05:36;;;;;;;10.82;5.63;;;;;;;21.13;56.22;101780.13;7392139;19;20019;-67
2023/06/16 09:08:05;;;;;;;11.23;5.35;;;;;;;21.15;55.62;101778.13;7390706;19;20019;-66
2023/06/16 09:10:35;;;;;;;12.68;5.40;;;;;;;21.26;55.77;101784.28;7391025;19;20022;-64
2023/06/16 09:13:02;;;;;;;11.45;5.85;;;;;;;21.41;55.78;101793.50;7391336;19;20022;-67
2023/06/16 09:15:33;;;;;;;8.50;5.05;;;;;;;21.58;54.88;101786.34;7391523;19;20030;-67
2023/06/16 09:18:06;;;;;;;8.02;4.82;;;;;;;21.61;55.16;101794.97;7392062;19;20037;-67
2023/06/16 09:20:38;;;;;;;11.33;5.37;;;;;;;21.68;54.13;101780.84;7390613;19;20026;-68
2023/06/16 09:23:05;;;;;;;8.63;4.68;;;;;;;21.73;53.85;101781.22;7390814;19;20029;-65
2023/06/16 09:25:34;;;;;;;13.13;6.63;;;;;;;21.88;53.20;101785.00;7387343;19;20018;-65
2023/06/16 09:28:09;;;;;;;10.35;5.50;;;;;;;21.97;52.45;101784.00;7389847;19;20018;-65
2023/06/16 09:30:37;;;;;;;8.80;4.93;;;;;;;22.02;52.61;101791.63;7390241;19;20570;-66
2023/06/16 09:33:10;;;;;;;9.25;5.50;;;;;;;22.12;52.63;101785.06;7390396;19;20078;-66
2023/06/16 09:35:40;;;;;;;8.60;5.10;;;;;;;22.18;52.55;101780.09;7391417;19;20026;-66
2023/06/16 09:38:09;;;;;;;9.63;4.93;;;;;;;22.26;52.18;101774.69;7390945;19;20047;-66
2023/06/16 09:40:38;;;;;;;7.45;5.05;;;;;;;22.26;51.80;101774.69;7394013;19;20018;-66
2023/06/16 09:43:25;;;;;;;8.38;5.38;;;;;;;22.23;52.34;101783.13;7387715;19;20039;-67
2023/06/16 09:46:14;;;;;;;9.85;6.00;;;;;;;22.17;51.89;101781.94;7386530;19;20015;-66
2023/06/16 09:49:04;;;;;;;8.98;6.32;;;;;;;22.04;52.02;101774.25;7384689;19;20023;-67
2023/06/16 09:51:52;;;;;;;10.95;6.50;;;;;;;21.95;52.13;101779.81;7385194;19;20022;-68
2023/06/16 09:54:40;;;;;;;9.88;5.75;;;;;;;21.85;52.60;101779.91;7386083;19;20019;-70
2023/06/16 09:57:27;;;;;;;7.75;5.10;;;;;;;21.83;52.98;101782.78;7385928;19;20053;-67
2023/06/16 10:00:18;;;;;;;11.13;5.93;;;;;;;21.79;53.75;101778.72;7384959;19;20434;-65
2023/06/16 10:03:09;;;;;;;9.38;4.50;;;;;;;21.64;53.58;101775.78;7384768;19;20486;-65
2023/06/16 10:06:03;;;;;;;9.32;5.63;;;;;;;21.73;53.51;101789.31;7385480;19;20031;-65
2023/06/16 10:08:51;;;;;;;7.78;5.47;;;;;;;21.93;52.77;101777.25;7385870;19;20038;-64
2023/06/16 10:11:39;;;;;;;6.95;4.60;;;;;;;22.01;52.52;101785.38;7385780;19;20374;-67
2023/06/16 10:14:31;;;;;;;10.02;4.68;;;;;;;22.05;52.58;101773.25;7385735;19;20345;-68
2023/06/16 10:17:19;;;;;;;8.00;5.03;;;;;;;22.12;51.84;101771.59;7385343;19;20445;-67
2023/06/16 10:20:13;;;;;;;9.13;5.05;;;;;;;22.12;51.60;101774.28;7382096;19;20494;-67
2023/06/16 10:23:01;;;;;;;9.38;4.65;;;;;;;22.12;51.62;101776.97;7384417;19;20011;-64
2023/06/16 10:25:49;;;;;;;9.32;5.22;;;;;;;22.16;51.99;101771.28;7384416;19;20015;-65
2023/06/16 10:28:36;;;;;;;10.60;5.72;;;;;;;22.18;51.58;101772.00;7383103;19;20025;-69
2023/06/16 10:31:27;;;;;;;17.40;8.48;;;;;;;22.20;51.75;101772.66;7383610;19;20116;-67
2023/06/16 10:34:19;;;;;;;7.55;5.00;;;;;;;22.14;51.53;101769.63;7384986;19;20007;-68
2023/06/16 10:36:48;;;;;;;8.93;5.55;;;;;;;22.12;51.53;101762.66;7393817;19;20018;-65
2023/06/16 10:39:16;;;;;;;8.07;4.90;;;;;;;22.17;51.76;101754.97;7396553;19;20018;-64
2023/06/16 10:41:55;;;;;;;9.80;4.90;;;;;;;22.28;50.93;101756.47;7395128;19;20018;-66
2023/06/16 10:44:26;;;;;;;9.23;6.18;;;;;;;22.29;51.00;101750.94;7397355;19;20022;-67
2023/06/16 10:47:09;;;;;;;10.98;5.15;;;;;;;22.29;50.73;101750.94;7393776;19;20455;-66
2023/06/16 10:50:16;;;;;;;9.00;5.60;;;;;;;22.33;50.75;101757.69;7396689;19;20022;-66
2023/06/16 10:52:43;;;;;;;10.75;4.95;;;;;;;22.26;51.39;101745.00;7394280;19;20014;-66
2023/06/16 10:55:37;;;;;;;7.57;4.70;;;;;;;22.36;51.56;101740.28;7394751;19;20014;-65
2023/06/16 10:58:18;;;;;;;8.45;4.60;;;;;;;22.42;51.74;101738.81;7396356;19;20026;-66
2023/06/16 11:00:58;;;;;;;8.45;5.30;;;;;;;22.47;51.34;101747.22;7394467;19;20022;-66
2023/06/16 11:03:42;;;;;;;10.40;5.20;;;;;;;22.38;51.43;101739.13;7395546;19;20038;-66
2023/06/16 11:06:10;;;;;;;8.93;5.10;;;;;;;22.32;51.33;101737.09;7396401;19;20029;-67
2023/06/16 11:08:58;;;;;;;8.77;4.72;;;;;;;22.35;51.86;101744.00;7393701;19;20014;-66
2023/06/16 11:11:33;;;;;;;9.65;4.93;;;;;;;22.33;51.92;101738.78;7392841;19;20081;-69
2023/06/16 11:14:01;;;;;;;9.20;4.90;;;;;;;22.37;51.53;101744.72;7395296;19;20467;-65
2023/06/16 11:16:28;;;;;;;12.77;5.03;;;;;;;22.37;51.90;101740.16;7394239;19;20022;-68
2023/06/16 11:18:57;;;;;;;8.45;5.05;;;;;;;22.47;50.93;101739.97;7396525;19;20090;-67
2023/06/16 11:21:30;;;;;;;9.98;5.05;;;;;;;22.50;51.21;101736.09;7393151;19;20486;-67
2023/06/16 11:24:08;;;;;;;7.70;4.65;;;;;;;22.56;51.27;101733.59;7394966;19;20045;-66
2023/06/16 11:26:36;;;;;;;8.85;4.80;;;;;;;22.59;51.54;101741.34;7395856;19;20015;-67
2023/06/16 11:29:07;;;;;;;8.02;4.63;;;;;;;22.55;51.03;101740.00;7395494;19;20022;-67
2023/06/16 11:31:35;;;;;;;7.72;4.75;;;;;;;22.63;50.46;101734.63;7395402;19;20504;-67
2023/06/16 11:34:04;;;;;;;6.85;4.57;;;;;;;22.71;49.83;101738.31;7395083;19;20014;-67